Time;durP1;ratioP1;P1;durP2;ratioP2;P2;SDS_P1;SDS_P2;PMS_P1;PMS_P2;Temp;Humidity;BMP_temperature;BMP_pressure;BME280_temperature;BME280_humidity;BME280_pressure;Samples;Min_cycle;Max_cycle;Signal;HPM_P1;HPM_P2
2022/03/02 00:00:12;;;;;;;19.60;12.17;;;;;;;5.27;66.66;102682.44;5134208;27;20031;-35
2022/03/02 00:02:37;;;;;;;15.52;11.85;;;;;;;5.23;66.31;102679.25;5134076;27;20644;-36
2022/03/02 00:05:03;;;;;;;13.50;10.77;;;;;;;5.17;69.08;102644.97;5134027;27;20027;-36
2022/03/02 00:07:29;;;;;;;15.48;11.70;;;;;;;5.20;66.95;102668.81;5134078;27;20443;-36
2022/03/02 00:09:54;;;;;;;14.00;10.30;;;;;;;5.24;66.88;102670.19;5134662;27;20073;-36
2022/03/02 00:12:19;;;;;;;13.77;10.97;;;;;;;5.19;66.15;102668.97;5134105;27;20057;-36
2022/03/02 00:14:45;;;;;;;12.90;10.63;;;;;;;5.11;67.18;102664.34;5134013;27;20431;-36
2022/03/02 00:17:10;;;;;;;15.97;11.70;;;;;;;5.17;65.42;102666.41;5133922;27;20034;-36
2022/03/02 00:19:37;;;;;;;14.10;10.97;;;;;;;5.06;66.68;102661.28;5134604;27;20035;-36
2022/03/02 00:22:03;;;;;;;14.00;11.05;;;;;;;5.15;68.72;102671.09;5133965;27;20031;-36
2022/03/02 00:24:29;;;;;;;18.25;11.98;;;;;;;5.10;66.57;102670.72;5134582;27;20024;-36
2022/03/02 00:26:54;;;;;;;13.53;9.70;;;;;;;5.13;69.82;102652.50;5133685;28;20023;-37
2022/03/02 00:29:19;;;;;;;10.87;9.70;;;;;;;5.21;70.92;102664.28;5134512;28;20057;-35
2022/03/02 00:31:45;;;;;;;13.47;10.53;;;;;;;5.12;67.19;102661.53;5133979;28;20132;-35
2022/03/02 00:34:10;;;;;;;14.63;11.00;;;;;;;5.15;69.50;102663.06;5134376;27;20027;-35
2022/03/02 00:36:36;;;;;;;13.27;10.37;;;;;;;5.19;68.14;102661.78;5133998;27;20055;-35
2022/03/02 00:39:02;;;;;;;14.43;9.90;;;;;;;5.16;67.97;102662.06;5133616;27;20059;-36
2022/03/02 00:41:27;;;;;;;13.70;10.65;;;;;;;5.17;68.97;102661.06;5133950;28;20023;-35
2022/03/02 00:43:53;;;;;;;12.30;9.20;;;;;;;5.22;71.53;102644.50;5133636;27;20455;-35
2022/03/02 00:46:20;;;;;;;14.52;10.63;;;;;;;5.12;67.77;102639.22;5134020;28;20031;-36
2022/03/02 00:48:46;;;;;;;14.85;10.27;;;;;;;5.16;66.34;102657.53;5133463;27;20023;-36
2022/03/02 00:51:11;;;;;;;15.18;11.63;;;;;;;5.04;64.63;102657.91;5134323;27;20030;-36
2022/03/02 00:53:37;;;;;;;13.97;10.90;;;;;;;4.92;64.89;102638.50;5133688;27;20463;-35
2022/03/02 00:56:03;;;;;;;14.93;11.20;;;;;;;5.07;66.66;102654.91;5134196;27;20349;-35
2022/03/02 00:58:28;;;;;;;14.55;11.25;;;;;;;4.95;66.03;102648.94;5133147;28;20126;-35
2022/03/02 01:00:54;;;;;;;12.82;10.38;;;;;;;4.91;64.98;102653.72;5133400;27;20034;-35
2022/03/02 01:03:19;;;;;;;14.47;10.97;;;;;;;4.95;66.44;102648.94;5132647;28;20051;-36
2022/03/02 01:05:44;;;;;;;11.77;9.40;;;;;;;4.75;68.32;102616.03;5134903;27;20027;-36
2022/03/02 01:08:10;;;;;;;11.30;9.10;;;;;;;4.91;70.82;102632.28;5137678;27;20034;-36
2022/03/02 01:10:35;;;;;;;12.77;9.97;;;;;;;5.00;70.96;102640.44;5137352;27;20501;-36
2022/03/02 01:13:01;;;;;;;12.37;10.00;;;;;;;5.01;68.87;102640.28;5137124;27;20393;-36
2022/03/02 01:15:27;;;;;;;12.43;10.13;;;;;;;5.04;70.79;102639.16;5137524;27;20071;-35
2022/03/02 01:17:53;;;;;;;14.60;11.43;;;;;;;5.04;66.80;102641.81;5136885;27;20467;-39
2022/03/02 01:20:19;;;;;;;12.73;9.97;;;;;;;4.94;66.99;102627.63;5137456;27;20037;-36
2022/03/02 01:22:44;;;;;;;11.57;9.65;;;;;;;4.93;65.18;102636.66;5137366;27;20417;-35
2022/03/02 01:25:10;;;;;;;15.77;10.87;;;;;;;4.92;64.55;102633.13;5136977;27;20035;-35
2022/03/02 01:27:36;;;;;;;15.40;11.10;;;;;;;4.89;64.97;102636.97;5137110;27;20031;-35
2022/03/02 01:30:04;;;;;;;12.38;9.77;;;;;;;4.91;66.74;102629.59;5137212;27;20265;-35
2022/03/02 01:32:29;;;;;;;12.82;9.68;;;;;;;4.77;64.93;102618.53;5136874;27;20035;-35
2022/03/02 01:34:55;;;;;;;15.10;10.73;;;;;;;4.77;64.62;102608.66;5137069;27;20482;-35
2022/03/02 01:37:20;;;;;;;13.37;10.20;;;;;;;4.85;64.50;102616.81;5137454;27;20043;-35
2022/03/02 01:39:46;;;;;;;14.03;10.83;;;;;;;4.83;63.79;102618.81;5136831;27;20114;-35
2022/03/02 01:42:11;;;;;;;13.68;10.57;;;;;;;4.82;64.48;102611.75;5136715;27;20019;-35
2022/03/02 01:44:37;;;;;;;15.27;11.30;;;;;;;4.83;63.94;102618.81;5137557;27;20034;-35
2022/03/02 01:47:05;;;;;;;15.25;10.45;;;;;;;4.77;63.78;102602.47;5136624;27;20511;-35
2022/03/02 01:49:31;;;;;;;12.93;10.23;;;;;;;4.71;64.44;102585.16;5137197;27;20047;-36
2022/03/02 01:51:56;;;;;;;13.90;10.00;;;;;;;4.78;64.13;102610.38;5136877;27;20057;-35
2022/03/02 01:54:22;;;;;;;14.07;9.95;;;;;;;4.80;63.31;102604.84;5137534;27;20024;-36
2022/03/02 01:56:49;;;;;;;12.47;10.40;;;;;;;4.84;64.40;102607.09;5136710;27;20071;-36
2022/03/02 01:59:14;;;;;;;13.00;9.98;;;;;;;4.80;63.98;102605.69;5136564;27;20046;-36
2022/03/02 02:01:40;;;;;;;16.10;10.53;;;;;;;4.79;62.96;102613.91;5136666;27;20455;-36
2022/03/02 02:04:05;;;;;;;12.45;10.18;;;;;;;4.72;62.39;102610.94;5136881;27;20118;-36
2022/03/02 02:06:31;;;;;;;12.10;9.48;;;;;;;4.75;63.29;102602.63;5136319;27;20028;-36
2022/03/02 02:09:02;;;;;;;13.23;9.80;;;;;;;4.78;63.61;102590.75;5136091;27;20030;-36
2022/03/02 02:11:30;;;;;;;16.83;10.45;;;;;;;4.78;63.77;102583.56;5136369;27;20027;-36
2022/03/02 02:13:55;;;;;;;13.48;9.93;;;;;;;4.72;62.90;102583.31;5135699;27;20131;-35
2022/03/02 02:16:21;;;;;;;13.60;10.53;;;;;;;4.75;62.63;102593.75;5135922;27;20031;-36
2022/03/02 02:18:50;;;;;;;12.20;10.27;;;;;;;4.72;61.90;102588.66;5135168;27;20034;-35
2022/03/02 02:21:15;;;;;;;14.57;10.00;;;;;;;4.74;63.03;102586.72;5136725;27;20024;-35
2022/03/02 02:23:41;;;;;;;11.73;8.40;;;;;;;4.62;62.89;102560.09;5135633;27;20494;-35
2022/03/02 02:26:07;;;;;;;12.57;9.80;;;;;;;4.74;62.16;102587.53;5135538;27;20589;-35
2022/03/02 02:28:32;;;;;;;13.25;9.80;;;;;;;4.76;62.49;102585.53;5135867;27;20083;-36
2022/03/02 02:30:59;;;;;;;13.55;10.15;;;;;;;4.75;63.09;102573.16;5135989;27;20401;-36
2022/03/02 02:33:26;;;;;;;12.38;9.05;;;;;;;4.79;62.64;102577.22;5135444;27;20376;-36
2022/03/02 02:35:52;;;;;;;18.20;9.35;;;;;;;4.79;62.58;102579.91;5133984;27;20491;-36
2022/03/02 02:38:20;;;;;;;12.98;9.88;;;;;;;4.78;62.64;102578.22;5135757;27;20072;-35
2022/03/02 02:40:45;;;;;;;13.60;9.85;;;;;;;4.72;61.84;102568.06;5135457;27;20176;-36
2022/03/02 02:43:11;;;;;;;12.67;9.30;;;;;;;4.74;62.30;102573.31;5135694;27;20038;-35
2022/03/02 02:45:36;;;;;;;14.97;10.10;;;;;;;4.71;61.80;102566.38;5135747;27;20447;-36
2022/03/02 02:48:04;;;;;;;12.13;9.70;;;;;;;4.72;62.92;102568.06;5135035;27;20285;-36
2022/03/02 02:50:32;;;;;;;11.60;9.23;;;;;;;4.72;62.37;102568.06;5135852;27;20336;-36
2022/03/02 02:53:02;;;;;;;12.82;9.85;;;;;;;4.59;62.34;102549.69;5135875;27;20035;-36
2022/03/02 02:55:28;;;;;;;13.45;9.85;;;;;;;4.62;62.93;102559.25;5135206;27;20041;-36
2022/03/02 02:57:55;;;;;;;12.65;9.77;;;;;;;4.64;62.64;102560.81;5135068;27;20035;-36
2022/03/02 03:00:22;;;;;;;12.68;8.95;;;;;;;4.67;63.29;102559.66;5135201;27;20059;-36
2022/03/02 03:02:50;;;;;;;13.70;9.32;;;;;;;4.68;63.50;102564.00;5135548;27;20023;-36
2022/03/02 03:05:17;;;;;;;14.85;10.00;;;;;;;4.59;63.01;102556.88;5135337;27;20060;-35
2022/03/02 03:07:44;;;;;;;12.13;9.52;;;;;;;4.55;62.85;102545.63;5135159;27;20053;-35
2022/03/02 03:10:10;;;;;;;11.23;9.27;;;;;;;4.46;64.06;102540.31;5134647;27;20023;-35
2022/03/02 03:12:36;;;;;;;14.70;10.00;;;;;;;4.57;63.55;102556.19;5134525;27;20391;-35
2022/03/02 03:15:04;;;;;;;14.68;10.18;;;;;;;4.55;63.00;102558.19;5135262;27;20019;-35
2022/03/02 03:17:29;;;;;;;13.20;9.48;;;;;;;4.50;64.93;102537.19;5135305;27;20038;-35
2022/03/02 03:19:55;;;;;;;15.50;10.80;;;;;;;4.44;64.13;102542.28;5134474;27;20387;-35
2022/03/02 03:22:20;;;;;;;15.43;10.37;;;;;;;4.43;63.98;102552.16;5134431;27;20031;-35
2022/03/02 03:24:45;;;;;;;11.73;9.32;;;;;;;4.45;64.67;102549.34;5135464;27;20041;-35
2022/03/02 03:27:11;;;;;;;12.17;8.80;;;;;;;4.30;64.99;102531.09;5135067;27;20118;-35
2022/03/02 03:29:37;;;;;;;15.07;9.87;;;;;;;4.30;62.69;102555.19;5134770;27;20467;-35
2022/03/02 03:32:03;;;;;;;12.57;10.00;;;;;;;4.30;64.42;102557.88;5134466;27;20023;-35
2022/03/02 03:34:29;;;;;;;12.45;9.70;;;;;;;4.29;64.85;102552.66;5134457;27;20042;-35
2022/03/02 03:36:54;;;;;;;11.97;9.47;;;;;;;4.17;64.90;102521.72;5134260;27;20039;-35
2022/03/02 03:39:20;;;;;;;12.67;8.73;;;;;;;4.30;64.42;102552.53;5134746;27;20046;-35
2022/03/02 03:41:45;;;;;;;11.90;9.30;;;;;;;4.23;64.11;102538.03;5134365;27;20034;-35
2022/03/02 03:44:11;;;;;;;11.97;8.63;;;;;;;4.28;67.12;102541.09;5134513;27;20294;-35
2022/03/02 03:46:36;;;;;;;11.40;8.32;;;;;;;4.21;64.22;102542.69;5134904;27;20121;-35
2022/03/02 03:49:02;;;;;;;13.20;8.67;;;;;;;4.21;66.16;102537.34;5134418;27;20037;-36
2022/03/02 03:51:27;;;;;;;11.43;8.98;;;;;;;4.20;65.85;102537.47;5134241;27;20070;-37
2022/03/02 03:53:53;;;;;;;14.40;9.53;;;;;;;4.21;64.28;102548.03;5134165;27;20031;-36
2022/03/02 03:56:18;;;;;;;11.03;8.77;;;;;;;4.25;65.63;102552.13;5134531;27;20117;-36
2022/03/02 03:58:43;;;;;;;14.90;9.37;;;;;;;4.09;64.14;102543.84;5134173;27;20475;-36
2022/03/02 04:01:09;;;;;;;11.07;8.70;;;;;;;4.23;69.25;102551.41;5133939;27;20031;-36
2022/03/02 04:03:35;;;;;;;10.60;8.97;;;;;;;4.25;68.41;102553.97;5134149;27;20451;-36
2022/03/02 04:06:00;;;;;;;10.13;8.38;;;;;;;4.28;69.94;102546.44;5134414;27;20067;-36
2022/03/02 04:08:26;;;;;;;11.40;8.83;;;;;;;4.21;69.72;102542.69;5133009;28;20493;-36
2022/03/02 04:10:51;;;;;;;11.37;8.33;;;;;;;4.13;67.75;102530.03;5134603;28;20369;-36
2022/03/02 04:13:16;;;;;;;11.97;8.87;;;;;;;4.13;67.28;102531.88;5133903;28;20452;-36
2022/03/02 04:15:42;;;;;;;11.47;8.97;;;;;;;4.06;66.02;102515.56;5133984;28;20129;-34
2022/03/02 04:18:07;;;;;;;13.73;9.37;;;;;;;4.05;64.47;102524.59;5134189;28;20031;-35
2022/03/02 04:20:34;;;;;;;11.13;8.43;;;;;;;4.21;67.34;102526.63;5134013;28;20606;-35
2022/03/02 04:23:00;;;;;;;10.98;8.50;;;;;;;4.13;67.03;102513.13;5134322;28;20315;-35
2022/03/02 04:25:25;;;;;;;11.85;9.00;;;;;;;4.11;66.57;102521.31;5133890;28;20076;-36
2022/03/02 04:27:51;;;;;;;11.63;7.73;;;;;;;4.26;70.58;102524.34;5133880;28;20052;-35
2022/03/02 04:30:16;;;;;;;10.00;8.23;;;;;;;4.10;65.99;102503.56;5133933;28;20072;-35
2022/03/02 04:32:42;;;;;;;11.80;8.65;;;;;;;4.05;64.09;102513.00;5133803;28;20030;-35
2022/03/02 04:35:10;;;;;;;12.23;8.68;;;;;;;4.12;65.17;102516.78;5133529;28;20106;-35
2022/03/02 04:37:37;;;;;;;11.68;8.20;;;;;;;4.05;67.11;102504.97;5134305;28;20047;-35
2022/03/02 04:40:07;;;;;;;11.15;8.15;;;;;;;4.11;66.37;102509.75;5134233;27;20055;-36
2022/03/02 04:42:32;;;;;;;11.93;8.23;;;;;;;4.08;63.90;102518.06;5138323;27;20173;-35
2022/03/02 04:44:58;;;;;;;11.00;9.13;;;;;;;4.00;63.77;102513.47;5138041;27;20062;-35
2022/03/02 04:47:23;;;;;;;12.73;9.20;;;;;;;4.02;66.79;102510.66;5137348;27;20257;-35
2022/03/02 04:49:49;;;;;;;12.35;8.85;;;;;;;4.05;66.13;102511.19;5137704;27;20474;-35
2022/03/02 04:52:15;;;;;;;11.52;8.48;;;;;;;4.03;67.09;102506.97;5137600;27;20034;-35
2022/03/02 04:57:24;;;;;;;11.13;8.50;;;;;;;4.05;69.25;102502.31;5138088;27;20054;-35
2022/03/02 04:59:50;;;;;;;11.20;8.93;;;;;;;4.00;65.73;102497.41;5137821;27;20475;-36
2022/03/02 05:02:17;;;;;;;12.07;8.63;;;;;;;4.02;64.64;102503.44;5137446;27;20070;-35
2022/03/02 05:04:42;;;;;;;11.27;8.35;;;;;;;3.95;66.47;102501.50;5137758;27;20076;-36
2022/03/02 05:07:08;;;;;;;11.00;7.70;;;;;;;3.98;65.19;102502.06;5137486;27;20027;-35
2022/03/02 05:09:33;;;;;;;10.63;8.27;;;;;;;3.90;65.64;102485.88;5137114;27;20241;-35
2022/03/02 05:11:58;;;;;;;11.07;8.43;;;;;;;3.92;63.90;102499.97;5137187;27;20042;-35
2022/03/02 05:14:23;;;;;;;9.73;7.90;;;;;;;3.83;63.57;102487.47;5136874;27;20026;-36
2022/03/02 05:16:49;;;;;;;10.67;8.47;;;;;;;3.80;63.12;102496.63;5137132;27;20031;-35
2022/03/02 05:19:14;;;;;;;11.83;8.80;;;;;;;3.89;66.74;102494.91;5137453;27;20077;-35
2022/03/02 05:21:39;;;;;;;9.73;7.60;;;;;;;3.77;65.18;102483.56;5137259;27;20387;-36
2022/03/02 05:24:05;;;;;;;9.57;7.50;;;;;;;3.91;66.83;102490.25;5137011;27;20026;-35
2022/03/02 05:26:30;;;;;;;10.52;7.88;;;;;;;3.85;63.93;102491.66;5137497;27;20023;-35
2022/03/02 05:28:56;;;;;;;13.73;8.63;;;;;;;3.84;64.32;102486.47;5136853;27;20023;-35
2022/03/02 05:31:23;;;;;;;12.50;8.33;;;;;;;3.83;63.08;102493.66;5137715;27;20023;-35
2022/03/02 05:33:51;;;;;;;10.43;8.20;;;;;;;3.80;63.20;102493.94;5137503;27;20324;-35
2022/03/02 05:36:16;;;;;;;9.25;6.80;;;;;;;3.81;67.06;102486.78;5136942;27;20471;-35
2022/03/02 05:38:42;;;;;;;12.48;8.38;;;;;;;3.84;66.63;102495.34;5136786;27;20053;-36
2022/03/02 05:41:07;;;;;;;9.17;7.23;;;;;;;3.81;64.76;102486.78;5136533;27;20109;-36
2022/03/02 05:43:32;;;;;;;11.13;7.60;;;;;;;3.80;66.22;102483.25;5136984;27;20084;-35
2022/03/02 05:45:58;;;;;;;9.77;7.33;;;;;;;3.83;65.11;102490.16;5136985;27;20079;-35
2022/03/02 05:48:23;;;;;;;12.20;7.97;;;;;;;3.76;63.78;102491.75;5136391;27;20027;-35
2022/03/02 05:50:48;;;;;;;11.50;8.60;;;;;;;3.71;63.16;102484.16;5136582;27;20027;-35
2022/03/02 05:53:13;;;;;;;12.53;8.40;;;;;;;3.58;62.52;102472.91;5135121;27;20065;-35
2022/03/02 05:55:39;;;;;;;12.37;7.60;;;;;;;3.66;63.40;102480.19;5136694;27;20031;-35
2022/03/02 05:58:04;;;;;;;11.03;7.93;;;;;;;3.67;64.63;102493.44;5136630;27;20059;-35
2022/03/02 06:00:29;;;;;;;11.00;8.17;;;;;;;3.49;63.42;102473.78;5136114;27;20538;-35
2022/03/02 06:02:55;;;;;;;10.40;7.97;;;;;;;3.57;63.37;102489.94;5136532;27;20083;-36
2022/03/02 06:05:20;;;;;;;14.87;8.53;;;;;;;3.45;62.79;102481.25;5136260;27;20027;-36
2022/03/02 06:07:45;;;;;;;11.63;8.33;;;;;;;3.52;64.11;102494.91;5136703;27;20027;-36
2022/03/02 06:10:13;;;;;;;12.40;8.50;;;;;;;3.52;64.79;102493.06;5136210;27;20368;-36
2022/03/02 06:12:39;;;;;;;12.63;8.57;;;;;;;3.44;65.12;102484.06;5134683;27;20042;-36
2022/03/02 06:15:05;;;;;;;11.60;8.80;;;;;;;3.45;63.69;102499.13;5136232;27;20324;-35
2022/03/02 06:17:31;;;;;;;12.20;8.32;;;;;;;3.46;63.80;102498.13;5136135;27;20030;-35
2022/03/02 06:19:57;;;;;;;10.48;8.07;;;;;;;3.43;63.75;102498.44;5136991;27;20034;-35
2022/03/02 06:22:24;;;;;;;12.07;8.70;;;;;;;3.35;64.42;102499.97;5135839;27;20109;-35
2022/03/02 06:24:51;;;;;;;11.02;8.57;;;;;;;3.33;63.18;102496.63;5135649;27;20021;-36
2022/03/02 06:27:20;;;;;;;9.68;8.13;;;;;;;3.40;66.96;102482.66;5135538;27;20390;-35
2022/03/02 06:29:46;;;;;;;11.23;8.20;;;;;;;3.46;67.34;102498.13;5136454;27;20056;-35
2022/03/02 06:32:11;;;;;;;11.23;8.38;;;;;;;3.46;68.55;102482.06;5135837;27;20027;-36
2022/03/02 06:34:36;;;;;;;12.73;9.40;;;;;;;3.46;63.90;102498.97;5136004;27;20027;-36
2022/03/02 06:37:02;;;;;;;10.37;8.13;;;;;;;3.43;65.40;102499.28;5136218;27;20057;-35
2022/03/02 06:39:28;;;;;;;13.68;9.75;;;;;;;3.45;64.39;102497.28;5136045;27;20039;-35
2022/03/02 06:42:04;;;;;;;11.20;8.73;;;;;;;3.42;64.23;102504.78;5135179;27;20031;-35
2022/03/02 06:44:44;;;;;;;13.38;8.13;;;;;;;3.46;65.78;102509.66;5136149;27;20055;-35
2022/03/02 06:47:10;;;;;;;10.60;7.85;;;;;;;3.39;64.73;102492.53;5135623;27;20459;-35
2022/03/02 06:49:46;;;;;;;11.57;8.95;;;;;;;3.41;64.44;102511.09;5135223;27;20023;-35
2022/03/02 06:52:18;;;;;;;11.63;9.02;;;;;;;3.44;63.85;102517.00;5135519;27;20023;-35
2022/03/02 06:54:47;;;;;;;10.18;7.95;;;;;;;3.38;63.30;102512.22;5135098;27;20023;-35
2022/03/02 06:57:15;;;;;;;10.20;7.43;;;;;;;3.51;66.80;102507.41;5135513;27;20465;-35
2022/03/02 06:59:43;;;;;;;11.23;7.65;;;;;;;3.51;65.09;102509.22;5135047;27;20023;-35
2022/03/02 07:02:11;;;;;;;10.85;8.05;;;;;;;3.47;63.63;102515.88;5135554;27;20055;-35
2022/03/02 07:04:42;;;;;;;10.85;8.00;;;;;;;3.41;63.53;102495.03;5134924;27;20087;-35
2022/03/02 07:07:09;;;;;;;11.40;8.30;;;;;;;3.55;63.64;102521.34;5133871;27;20104;-35
2022/03/02 07:09:35;;;;;;;10.98;8.20;;;;;;;3.50;62.41;102518.25;5134963;27;20104;-35
2022/03/02 07:12:05;;;;;;;11.13;7.78;;;;;;;3.58;63.34;102513.88;5135169;27;20105;-35
2022/03/02 07:14:32;;;;;;;14.38;8.38;;;;;;;3.52;62.54;102514.47;5134991;27;20058;-35
2022/03/02 07:17:00;;;;;;;11.15;7.93;;;;;;;3.54;60.50;102517.81;5135516;27;20054;-35
2022/03/02 07:19:26;;;;;;;12.65;8.27;;;;;;;3.41;62.04;102495.88;5135473;27;20019;-36
2022/03/02 07:21:52;;;;;;;11.40;8.63;;;;;;;3.60;61.08;102522.59;5134654;27;20023;-35
2022/03/02 07:24:19;;;;;;;;;;;;;;;3.67;61.00;102520.19;5135134;27;20031;-35
2022/03/02 07:26:46;;;;;;;13.30;8.38;;;;;;;3.69;61.89;102523.56;5135031;27;19908;-35
2022/03/02 07:29:14;;;;;;;11.50;8.30;;;;;;;3.68;60.54;102511.19;5134447;27;20054;-35
2022/03/02 07:31:41;;;;;;;10.27;7.47;;;;;;;3.74;62.00;102505.25;5134293;27;20179;-35
2022/03/02 07:34:11;;;;;;;13.35;8.57;;;;;;;3.88;61.06;102511.97;5134035;27;20030;-35
2022/03/02 07:36:37;;;;;;;10.38;8.05;;;;;;;3.87;59.61;102510.28;5135229;27;20138;-35
2022/03/02 07:39:02;;;;;;;;;;;;;;;3.98;61.03;102514.59;5134415;27;20031;-35
2022/03/02 07:41:29;;;;;;;10.48;7.60;;;;;;;4.04;61.12;102512.16;5134977;27;19960;-35
2022/03/02 07:43:54;;;;;;;12.27;7.88;;;;;;;4.09;59.16;102514.41;5134746;27;20483;-35
2022/03/02 07:46:20;;;;;;;10.43;8.00;;;;;;;4.16;59.38;102512.84;5134619;27;20023;-35
2022/03/02 07:48:45;;;;;;;11.60;7.95;;;;;;;4.21;59.21;102496.31;5133881;27;20463;-35
2022/03/02 07:51:11;;;;;;;10.57;7.83;;;;;;;4.30;59.14;102512.34;5134771;27;20031;-35
2022/03/02 07:53:48;;;;;;;15.63;8.40;;;;;;;4.34;59.29;102513.75;5134126;27;20056;-35
2022/03/02 07:56:15;;;;;;;11.07;8.15;;;;;;;4.39;58.63;102511.47;5134245;27;20609;-35
2022/03/02 07:58:41;;;;;;;11.05;7.60;;;;;;;4.41;56.88;102505.09;5134176;27;20159;-36
2022/03/02 08:01:08;;;;;;;11.38;7.88;;;;;;;4.50;58.23;102509.56;5134082;27;20024;-36
2022/03/02 08:03:38;;;;;;;14.52;8.70;;;;;;;4.52;56.53;102508.41;5134066;27;20031;-36
2022/03/02 08:06:05;;;;;;;10.60;7.53;;;;;;;4.61;55.77;102507.50;5134773;27;20030;-36
2022/03/02 08:08:31;;;;;;;15.02;7.75;;;;;;;4.70;56.58;102510.28;5133877;27;20038;-36
2022/03/02 08:10:56;;;;;;;13.82;7.95;;;;;;;4.68;56.74;102491.66;5134420;28;20134;-36
2022/03/02 08:13:23;;;;;;;11.50;7.40;;;;;;;4.83;56.86;102500.88;5133857;28;20027;-36
2022/03/02 08:15:50;;;;;;;12.20;7.60;;;;;;;4.94;55.42;102505.16;5135725;27;20375;-36
2022/03/02 08:18:15;;;;;;;10.65;7.75;;;;;;;5.02;56.02;102501.69;5138247;27;20035;-36
2022/03/02 08:20:50;;;;;;;12.00;6.80;;;;;;;5.03;53.52;102498.03;5138379;27;20045;-36
2022/03/02 08:23:19;;;;;;;11.52;6.97;;;;;;;5.06;53.10;102501.22;5137984;27;20386;-36
2022/03/02 08:25:55;;;;;;;9.27;7.15;;;;;;;5.20;53.61;102496.31;5138362;27;20088;-36
2022/03/02 08:28:22;;;;;;;9.73;6.90;;;;;;;5.28;54.13;102483.81;5137916;27;20033;-36
2022/03/02 08:30:52;;;;;;;12.27;7.60;;;;;;;5.32;54.26;102476.28;5138733;27;20367;-36
2022/03/02 08:33:27;;;;;;;8.75;7.03;;;;;;;5.50;53.83;102492.34;5137469;27;20026;-36
2022/03/02 08:35:54;;;;;;;9.05;6.93;;;;;;;5.60;54.19;102482.34;5137795;27;20023;-36
2022/03/02 08:38:21;;;;;;;9.88;6.78;;;;;;;5.63;51.99;102479.34;5137957;27;20328;-36
2022/03/02 08:40:47;;;;;;;11.13;7.40;;;;;;;5.64;52.33;102479.19;5137970;27;20030;-37
2022/03/02 08:43:15;;;;;;;11.13;7.15;;;;;;;5.65;51.27;102477.34;5137657;27;20113;-36
2022/03/02 08:45:47;;;;;;;8.68;6.63;;;;;;;5.85;52.21;102486.84;5138400;27;20391;-36
2022/03/02 08:48:17;;;;;;;9.18;7.18;;;;;;;5.87;52.28;102468.75;5137466;27;20092;-36
2022/03/02 08:50:43;;;;;;;8.45;6.75;;;;;;;6.01;51.28;102480.78;5138345;27;20062;-36
2022/03/02 08:53:12;;;;;;;9.93;7.55;;;;;;;6.01;51.02;102482.63;5137678;27;20106;-37
2022/03/02 08:55:39;;;;;;;12.27;7.30;;;;;;;6.06;50.61;102486.50;5137544;27;20030;-37
2022/03/02 08:58:04;;;;;;;11.02;7.32;;;;;;;6.15;50.06;102482.84;5137650;27;20027;-37
2022/03/02 09:00:31;;;;;;;9.90;7.40;;;;;;;6.17;50.34;102477.31;5138435;27;20400;-36
2022/03/02 09:02:56;;;;;;;11.32;7.38;;;;;;;6.32;51.30;102482.91;5137342;27;20080;-36
2022/03/02 09:05:26;;;;;;;10.50;7.32;;;;;;;6.44;50.76;102478.88;5137871;27;20039;-36
2022/03/02 09:07:52;;;;;;;9.65;6.80;;;;;;;6.56;51.28;102477.59;5137470;27;20030;-36
2022/03/02 09:10:17;;;;;;;10.43;6.68;;;;;;;6.62;52.20;102473.41;5138068;27;20031;-36
2022/03/02 09:12:42;;;;;;;9.77;7.37;;;;;;;6.71;50.25;102472.41;5137091;27;20027;-37
2022/03/02 09:15:08;;;;;;;11.00;7.37;;;;;;;6.74;48.88;102472.09;5137988;27;20023;-37
2022/03/02 09:17:35;;;;;;;9.48;6.72;;;;;;;6.83;50.60;102478.28;5137039;27;20483;-36
2022/03/02 09:20:00;;;;;;;8.23;6.80;;;;;;;6.88;50.34;102470.56;5137456;27;20023;-37
2022/03/02 09:22:27;;;;;;;8.20;7.13;;;;;;;6.96;49.80;102460.66;5137386;27;20088;-36
2022/03/02 09:24:53;;;;;;;9.73;7.28;;;;;;;7.09;50.39;102467.41;5137938;27;20023;-36
2022/03/02 09:27:19;;;;;;;;;;;;;;;7.18;50.62;102461.84;5136832;27;20134;-35
2022/03/02 09:29:47;;;;;;;8.85;7.18;;;;;;;7.29;51.18;102463.34;5136637;27;19951;-35
2022/03/02 09:32:14;;;;;;;9.82;7.20;;;;;;;7.35;49.61;102449.22;5136771;27;20053;-35
2022/03/02 09:34:45;;;;;;;8.35;6.32;;;;;;;7.56;50.16;102458.59;5137363;27;20041;-36
2022/03/02 09:37:13;;;;;;;9.93;7.03;;;;;;;7.64;48.20;102455.88;5137031;27;20046;-35
2022/03/02 09:39:38;;;;;;;9.77;6.95;;;;;;;7.73;48.99;102449.47;5137092;27;20031;-34
2022/03/02 09:42:08;;;;;;;11.30;7.00;;;;;;;7.94;50.58;102443.50;5136978;27;20035;-35
2022/03/02 09:44:51;;;;;;;10.07;7.22;;;;;;;8.14;50.25;102441.22;5136918;27;20134;-35
2022/03/02 09:47:20;;;;;;;11.65;7.40;;;;;;;8.28;49.22;102440.47;5136573;27;20072;-35
2022/03/02 09:49:55;;;;;;;12.68;7.28;;;;;;;8.31;47.28;102437.44;5137368;27;20410;-35
2022/03/02 09:52:21;;;;;;;10.75;7.20;;;;;;;8.33;46.65;102440.78;5136654;27;20493;-35
2022/03/02 09:54:52;;;;;;;10.35;7.40;;;;;;;8.14;45.38;102433.13;5136446;27;20080;-36
2022/03/02 09:57:19;;;;;;;9.63;7.40;;;;;;;8.19;46.30;102436.13;5136105;27;20031;-36
2022/03/02 09:59:53;;;;;;;9.93;7.35;;;;;;;8.27;46.07;102428.00;5136589;27;20031;-36
2022/03/02 10:02:46;;;;;;;10.18;7.75;;;;;;;8.27;45.78;102439.63;5136546;27;20313;-35
2022/03/02 10:05:18;;;;;;;9.60;7.43;;;;;;;8.34;45.69;102434.34;5134310;27;20050;-35
2022/03/02 10:07:54;;;;;;;8.15;6.43;;;;;;;8.36;44.64;102442.28;5136364;27;20059;-35
2022/03/02 10:10:23;;;;;;;9.50;7.10;;;;;;;8.37;45.06;102444.00;5136711;27;20074;-35
2022/03/02 10:12:53;;;;;;;10.45;7.07;;;;;;;8.45;43.58;102436.72;5135644;27;20527;-36
2022/03/02 10:15:19;;;;;;;9.40;7.32;;;;;;;8.58;44.72;102437.97;5135405;27;20031;-35
2022/03/02 10:17:48;;;;;;;9.60;7.30;;;;;;;8.55;42.67;102447.25;5135682;27;20035;-36
2022/03/02 10:20:23;;;;;;;9.02;7.15;;;;;;;8.50;42.41;102434.31;5135483;27;20027;-36
2022/03/02 10:22:57;;;;;;;9.40;7.40;;;;;;;8.57;43.83;102439.81;5138491;27;20038;-36
2022/03/02 10:25:36;;;;;;;8.90;7.22;;;;;;;8.59;43.73;102431.53;5135282;27;20467;-36
2022/03/02 10:28:05;;;;;;;9.38;7.45;;;;;;;8.69;42.00;102427.63;5134686;27;20100;-36
2022/03/02 10:30:37;;;;;;;8.27;6.30;;;;;;;8.79;43.87;102424.66;5135365;27;20023;-36
2022/03/02 10:33:17;;;;;;;8.23;6.75;;;;;;;8.68;42.57;102425.91;5135062;27;20478;-36
2022/03/02 10:35:50;;;;;;;8.68;6.88;;;;;;;8.64;42.63;102413.00;5135172;27;20110;-36
2022/03/02 10:38:22;;;;;;;8.90;6.63;;;;;;;8.75;41.65;102405.31;5134931;27;20134;-36
2022/03/02 10:40:53;;;;;;;8.30;6.75;;;;;;;8.85;42.41;102409.63;5135227;27;20126;-36
2022/03/02 10:43:26;;;;;;;8.70;7.07;;;;;;;8.93;42.78;102410.41;5133878;27;20034;-35
2022/03/02 10:45:51;;;;;;;8.73;6.75;;;;;;;8.78;40.93;102417.56;5135120;27;20027;-36
2022/03/02 10:48:38;;;;;;;10.35;6.85;;;;;;;8.82;42.30;102415.38;5135144;27;20429;-36
2022/03/02 10:51:06;;;;;;;9.30;6.97;;;;;;;8.96;42.39;102414.56;5135348;27;20369;-36
2022/03/02 10:53:36;;;;;;;9.20;6.97;;;;;;;8.80;41.44;102390.44;5135181;27;20023;-36
2022/03/02 10:56:04;;;;;;;8.25;6.40;;;;;;;9.02;42.90;102403.88;5135196;27;20063;-36
2022/03/02 10:58:30;;;;;;;9.43;7.30;;;;;;;9.08;42.20;102413.13;5135203;27;20061;-36
2022/03/02 11:00:56;;;;;;;9.02;7.07;;;;;;;9.08;41.14;102415.81;5135191;27;20031;-36
2022/03/02 11:03:21;;;;;;;9.52;7.03;;;;;;;9.14;42.71;102416.94;5134495;27;20027;-36
2022/03/02 11:05:46;;;;;;;7.47;6.33;;;;;;;9.22;39.86;102406.06;5135702;27;20502;-36
2022/03/02 11:08:12;;;;;;;8.30;6.47;;;;;;;9.35;41.41;102395.47;5134746;27;20490;-36
2022/03/02 11:10:39;;;;;;;7.82;6.25;;;;;;;9.39;39.20;102394.06;5134338;27;20494;-36
2022/03/02 11:13:15;;;;;;;8.48;6.35;;;;;;;9.58;40.15;102392.69;5135377;27;20031;-36
2022/03/02 11:15:47;;;;;;;11.48;6.80;;;;;;;9.61;40.17;102397.69;5135502;27;20442;-36
2022/03/02 11:18:16;;;;;;;8.48;6.43;;;;;;;9.67;39.97;102393.44;5134683;27;20105;-36
2022/03/02 11:20:52;;;;;;;7.68;6.38;;;;;;;9.74;39.90;102388.94;5135492;27;20023;-37
2022/03/02 11:23:24;;;;;;;9.70;6.78;;;;;;;9.88;40.11;102390.78;5114357;28;20492;-37
2022/03/02 11:25:52;;;;;;;10.93;6.63;;;;;;;9.73;39.42;102380.00;5114610;28;20106;-37
2022/03/02 11:28:20;;;;;;;8.63;6.35;;;;;;;9.74;38.83;102368.16;5133392;27;20033;-35